sensor_id;sensor_type;location;lat;lon;timestamp;P1;durP1;ratioP1;P2;durP2;ratioP2
11113;SDS011;5610;52.154;9.198;2023-06-10T00:02:18;7.40;;;4.97;;
11113;SDS011;5610;52.154;9.198;2023-06-10T00:05:03;6.40;;;5.80;;
11113;SDS011;5610;52.154;9.198;2023-06-10T00:07:49;7.70;;;5.97;;
11113;SDS011;5610;52.154;9.198;2023-06-10T00:10:36;7.20;;;5.00;;
11113;SDS011;5610;52.154;9.198;2023-06-10T00:13:22;7.63;;;5.80;;
11113;SDS011;5610;52.154;9.198;2023-06-10T00:16:07;10.13;;;5.90;;
11113;SDS011;5610;52.154;9.198;2023-06-10T00:18:52;8.10;;;5.13;;
11113;SDS011;5610;52.154;9.198;2023-06-10T00:21:39;6.27;;;5.40;;
11113;SDS011;5610;52.154;9.198;2023-06-10T00:24:24;5.37;;;4.80;;
11113;SDS011;5610;52.154;9.198;2023-06-10T00:27:11;6.80;;;5.40;;
11113;SDS011;5610;52.154;9.198;2023-06-10T00:29:56;6.47;;;5.20;;
11113;SDS011;5610;52.154;9.198;2023-06-10T00:32:42;7.60;;;6.03;;
11113;SDS011;5610;52.154;9.198;2023-06-10T00:35:27;6.17;;;5.20;;
11113;SDS011;5610;52.154;9.198;2023-06-10T00:38:12;6.03;;;5.40;;
11113;SDS011;5610;52.154;9.198;2023-06-10T00:40:58;6.43;;;5.00;;
11113;SDS011;5610;52.154;9.198;2023-06-10T00:43:45;6.20;;;5.60;;
11113;SDS011;5610;52.154;9.198;2023-06-10T00:46:30;6.53;;;4.77;;
11113;SDS011;5610;52.154;9.198;2023-06-10T00:49:17;5.70;;;5.20;;
11113;SDS011;5610;52.154;9.198;2023-06-10T00:52:03;6.33;;;5.40;;
11113;SDS011;5610;52.154;9.198;2023-06-10T00:54:51;5.80;;;5.00;;
11113;SDS011;5610;52.154;9.198;2023-06-10T00:57:36;7.07;;;5.10;;
11113;SDS011;5610;52.154;9.198;2023-06-10T01:00:24;5.73;;;4.90;;
11113;SDS011;5610;52.154;9.198;2023-06-10T01:03:09;5.93;;;5.37;;
11113;SDS011;5610;52.154;9.198;2023-06-10T01:05:57;5.43;;;4.97;;
11113;SDS011;5610;52.154;9.198;2023-06-10T01:08:50;6.57;;;5.17;;
11113;SDS011;5610;52.154;9.198;2023-06-10T01:11:43;6.67;;;5.03;;
11113;SDS011;5610;52.154;9.198;2023-06-10T01:14:32;5.50;;;5.00;;
11113;SDS011;5610;52.154;9.198;2023-06-10T01:17:19;11.80;;;5.93;;
11113;SDS011;5610;52.154;9.198;2023-06-10T01:20:05;6.00;;;5.03;;
11113;SDS011;5610;52.154;9.198;2023-06-10T01:22:57;6.33;;;4.40;;
11113;SDS011;5610;52.154;9.198;2023-06-10T01:25:44;8.00;;;4.90;;
11113;SDS011;5610;52.154;9.198;2023-06-10T01:28:33;6.13;;;4.80;;
11113;SDS011;5610;52.154;9.198;2023-06-10T01:31:23;6.33;;;5.13;;
11113;SDS011;5610;52.154;9.198;2023-06-10T01:34:18;7.50;;;5.40;;
11113;SDS011;5610;52.154;9.198;2023-06-10T01:37:05;7.63;;;5.23;;
11113;SDS011;5610;52.154;9.198;2023-06-10T01:39:52;8.30;;;5.13;;
11113;SDS011;5610;52.154;9.198;2023-06-10T01:42:42;6.50;;;4.90;;
11113;SDS011;5610;52.154;9.198;2023-06-10T01:45:27;6.77;;;5.20;;
11113;SDS011;5610;52.154;9.198;2023-06-10T01:48:12;7.30;;;4.60;;
11113;SDS011;5610;52.154;9.198;2023-06-10T01:50:58;8.57;;;4.97;;
11113;SDS011;5610;52.154;9.198;2023-06-10T01:53:43;5.50;;;4.47;;
11113;SDS011;5610;52.154;9.198;2023-06-10T01:56:29;6.90;;;5.20;;
11113;SDS011;5610;52.154;9.198;2023-06-10T01:59:15;10.90;;;5.30;;
11113;SDS011;5610;52.154;9.198;2023-06-10T02:02:00;9.13;;;5.20;;
11113;SDS011;5610;52.154;9.198;2023-06-10T02:04:45;6.03;;;4.93;;
11113;SDS011;5610;52.154;9.198;2023-06-10T02:07:30;7.10;;;5.13;;
11113;SDS011;5610;52.154;9.198;2023-06-10T02:10:15;6.30;;;4.80;;
11113;SDS011;5610;52.154;9.198;2023-06-10T02:13:02;7.17;;;4.77;;
11113;SDS011;5610;52.154;9.198;2023-06-10T02:15:47;7.00;;;4.87;;
11113;SDS011;5610;52.154;9.198;2023-06-10T02:18:32;5.77;;;5.10;;
11113;SDS011;5610;52.154;9.198;2023-06-10T02:21:18;6.60;;;5.00;;
11113;SDS011;5610;52.154;9.198;2023-06-10T02:24:04;8.43;;;5.23;;
11113;SDS011;5610;52.154;9.198;2023-06-10T02:26:50;8.30;;;5.03;;
11113;SDS011;5610;52.154;9.198;2023-06-10T02:29:36;5.33;;;4.80;;
11113;SDS011;5610;52.154;9.198;2023-06-10T02:32:22;7.00;;;4.87;;
11113;SDS011;5610;52.154;9.198;2023-06-10T02:35:09;6.33;;;5.13;;
11113;SDS011;5610;52.154;9.198;2023-06-10T02:37:56;7.63;;;4.70;;
11113;SDS011;5610;52.154;9.198;2023-06-10T02:40:41;5.80;;;4.83;;
11113;SDS011;5610;52.154;9.198;2023-06-10T02:43:28;4.63;;;3.83;;
11113;SDS011;5610;52.154;9.198;2023-06-10T02:46:15;10.07;;;5.67;;
11113;SDS011;5610;52.154;9.198;2023-06-10T02:49:01;6.70;;;4.23;;
11113;SDS011;5610;52.154;9.198;2023-06-10T02:51:47;5.53;;;5.03;;
11113;SDS011;5610;52.154;9.198;2023-06-10T02:54:32;8.83;;;5.03;;
11113;SDS011;5610;52.154;9.198;2023-06-10T02:57:20;7.67;;;5.10;;
11113;SDS011;5610;52.154;9.198;2023-06-10T03:00:06;7.30;;;5.07;;
11113;SDS011;5610;52.154;9.198;2023-06-10T03:02:58;7.87;;;5.33;;
11113;SDS011;5610;52.154;9.198;2023-06-10T03:05:50;12.50;;;6.00;;
11113;SDS011;5610;52.154;9.198;2023-06-10T03:08:37;9.93;;;5.03;;
11113;SDS011;5610;52.154;9.198;2023-06-10T03:11:26;7.90;;;5.17;;
11113;SDS011;5610;52.154;9.198;2023-06-10T03:14:12;6.27;;;5.23;;
11113;SDS011;5610;52.154;9.198;2023-06-10T03:16:57;8.37;;;5.30;;
11113;SDS011;5610;52.154;9.198;2023-06-10T03:19:44;6.00;;;5.20;;
11113;SDS011;5610;52.154;9.198;2023-06-10T03:22:30;6.97;;;4.73;;
11113;SDS011;5610;52.154;9.198;2023-06-10T03:25:20;9.90;;;5.23;;
11113;SDS011;5610;52.154;9.198;2023-06-10T03:28:09;9.07;;;6.47;;
11113;SDS011;5610;52.154;9.198;2023-06-10T03:30:54;9.57;;;5.70;;
11113;SDS011;5610;52.154;9.198;2023-06-10T03:33:42;11.60;;;6.00;;
11113;SDS011;5610;52.154;9.198;2023-06-10T03:36:29;7.00;;;4.90;;
11113;SDS011;5610;52.154;9.198;2023-06-10T03:39:14;8.63;;;5.93;;
11113;SDS011;5610;52.154;9.198;2023-06-10T03:42:00;11.30;;;5.73;;
11113;SDS011;5610;52.154;9.198;2023-06-10T03:44:46;10.57;;;5.13;;
11113;SDS011;5610;52.154;9.198;2023-06-10T03:47:33;9.40;;;6.10;;
11113;SDS011;5610;52.154;9.198;2023-06-10T03:50:19;6.13;;;5.23;;
11113;SDS011;5610;52.154;9.198;2023-06-10T03:53:07;5.97;;;5.37;;
11113;SDS011;5610;52.154;9.198;2023-06-10T03:55:53;8.07;;;5.33;;
11113;SDS011;5610;52.154;9.198;2023-06-10T03:58:41;8.30;;;5.90;;
11113;SDS011;5610;52.154;9.198;2023-06-10T04:01:27;7.17;;;5.60;;
11113;SDS011;5610;52.154;9.198;2023-06-10T04:04:13;9.10;;;5.57;;
11113;SDS011;5610;52.154;9.198;2023-06-10T04:07:00;8.57;;;5.63;;
11113;SDS011;5610;52.154;9.198;2023-06-10T04:09:46;7.80;;;5.77;;
11113;SDS011;5610;52.154;9.198;2023-06-10T04:12:32;9.67;;;5.47;;
11113;SDS011;5610;52.154;9.198;2023-06-10T04:15:18;9.00;;;6.00;;
11113;SDS011;5610;52.154;9.198;2023-06-10T04:18:04;7.43;;;6.20;;
11113;SDS011;5610;52.154;9.198;2023-06-10T04:20:49;9.77;;;5.57;;
11113;SDS011;5610;52.154;9.198;2023-06-10T04:23:35;6.87;;;6.13;;
11113;SDS011;5610;52.154;9.198;2023-06-10T04:26:24;8.83;;;6.00;;
11113;SDS011;5610;52.154;9.198;2023-06-10T04:29:09;8.03;;;5.87;;
11113;SDS011;5610;52.154;9.198;2023-06-10T04:31:55;9.03;;;5.87;;
11113;SDS011;5610;52.154;9.198;2023-06-10T04:34:40;6.37;;;5.77;;
11113;SDS011;5610;52.154;9.198;2023-06-10T04:37:26;12.10;;;6.13;;
11113;SDS011;5610;52.154;9.198;2023-06-10T04:40:13;10.90;;;6.07;;
11113;SDS011;5610;52.154;9.198;2023-06-10T04:43:01;10.60;;;6.33;;
11113;SDS011;5610;52.154;9.198;2023-06-10T04:45:46;8.33;;;6.03;;
11113;SDS011;5610;52.154;9.198;2023-06-10T04:48:31;8.13;;;6.30;;
11113;SDS011;5610;52.154;9.198;2023-06-10T04:51:18;8.73;;;5.73;;
11113;SDS011;5610;52.154;9.198;2023-06-10T04:54:04;9.70;;;6.60;;
11113;SDS011;5610;52.154;9.198;2023-06-10T04:56:49;8.97;;;6.43;;
11113;SDS011;5610;52.154;9.198;2023-06-10T04:59:35;9.90;;;6.57;;
11113;SDS011;5610;52.154;9.198;2023-06-10T05:02:22;9.77;;;7.67;;
11113;SDS011;5610;52.154;9.198;2023-06-10T05:05:07;7.77;;;6.20;;
11113;SDS011;5610;52.154;9.198;2023-06-10T05:07:52;10.07;;;6.53;;
11113;SDS011;5610;52.154;9.198;2023-06-10T05:10:37;10.43;;;6.87;;
11113;SDS011;5610;52.154;9.198;2023-06-10T05:13:22;9.70;;;7.03;;
11113;SDS011;5610;52.154;9.198;2023-06-10T05:16:09;10.20;;;6.40;;
11113;SDS011;5610;52.154;9.198;2023-06-10T05:18:54;12.13;;;6.97;;
11113;SDS011;5610;52.154;9.198;2023-06-10T05:21:39;7.90;;;6.93;;
11113;SDS011;5610;52.154;9.198;2023-06-10T05:24:24;9.53;;;6.97;;
11113;SDS011;5610;52.154;9.198;2023-06-10T05:27:09;7.83;;;7.10;;
11113;SDS011;5610;52.154;9.198;2023-06-10T05:29:55;9.00;;;6.40;;
11113;SDS011;5610;52.154;9.198;2023-06-10T05:32:41;10.80;;;7.70;;
11113;SDS011;5610;52.154;9.198;2023-06-10T05:35:26;8.80;;;7.00;;
11113;SDS011;5610;52.154;9.198;2023-06-10T05:38:11;10.53;;;7.43;;
11113;SDS011;5610;52.154;9.198;2023-06-10T05:40:56;8.63;;;7.00;;
11113;SDS011;5610;52.154;9.198;2023-06-10T05:43:42;10.10;;;7.37;;
11113;SDS011;5610;52.154;9.198;2023-06-10T05:46:28;7.80;;;6.53;;
11113;SDS011;5610;52.154;9.198;2023-06-10T05:49:15;8.40;;;6.90;;
11113;SDS011;5610;52.154;9.198;2023-06-10T05:52:00;8.67;;;6.60;;
11113;SDS011;5610;52.154;9.198;2023-06-10T05:54:45;9.80;;;7.10;;
11113;SDS011;5610;52.154;9.198;2023-06-10T05:57:30;9.60;;;7.00;;
11113;SDS011;5610;52.154;9.198;2023-06-10T06:00:16;9.77;;;7.07;;
11113;SDS011;5610;52.154;9.198;2023-06-10T06:03:02;9.57;;;7.00;;
11113;SDS011;5610;52.154;9.198;2023-06-10T06:05:48;9.07;;;6.67;;
11113;SDS011;5610;52.154;9.198;2023-06-10T06:08:34;7.53;;;6.77;;
11113;SDS011;5610;52.154;9.198;2023-06-10T06:11:19;8.03;;;7.10;;
11113;SDS011;5610;52.154;9.198;2023-06-10T06:14:04;8.07;;;6.87;;
11113;SDS011;5610;52.154;9.198;2023-06-10T06:16:49;10.93;;;7.70;;
11113;SDS011;5610;52.154;9.198;2023-06-10T06:19:34;7.07;;;6.03;;
11113;SDS011;5610;52.154;9.198;2023-06-10T06:22:21;9.50;;;6.97;;
11113;SDS011;5610;52.154;9.198;2023-06-10T06:25:06;9.53;;;7.60;;
11113;SDS011;5610;52.154;9.198;2023-06-10T06:27:51;7.13;;;6.43;;
11113;SDS011;5610;52.154;9.198;2023-06-10T06:30:37;8.60;;;7.13;;
11113;SDS011;5610;52.154;9.198;2023-06-10T06:33:22;8.13;;;7.30;;
11113;SDS011;5610;52.154;9.198;2023-06-10T06:36:07;7.63;;;5.90;;
11113;SDS011;5610;52.154;9.198;2023-06-10T06:38:54;7.13;;;6.27;;
11113;SDS011;5610;52.154;9.198;2023-06-10T06:41:40;10.40;;;7.10;;
11113;SDS011;5610;52.154;9.198;2023-06-10T06:44:25;10.40;;;6.20;;
11113;SDS011;5610;52.154;9.198;2023-06-10T06:47:11;12.27;;;7.20;;
11113;SDS011;5610;52.154;9.198;2023-06-10T06:49:56;7.63;;;6.83;;
11113;SDS011;5610;52.154;9.198;2023-06-10T06:52:41;15.03;;;7.13;;
11113;SDS011;5610;52.154;9.198;2023-06-10T06:55:27;11.67;;;7.60;;
11113;SDS011;5610;52.154;9.198;2023-06-10T06:58:13;7.03;;;6.00;;
11113;SDS011;5610;52.154;9.198;2023-06-10T07:00:58;11.17;;;6.20;;
11113;SDS011;5610;52.154;9.198;2023-06-10T07:03:43;12.23;;;7.10;;
11113;SDS011;5610;52.154;9.198;2023-06-10T07:06:28;9.40;;;6.23;;
11113;SDS011;5610;52.154;9.198;2023-06-10T07:09:13;6.20;;;5.60;;
11113;SDS011;5610;52.154;9.198;2023-06-10T07:12:00;6.80;;;5.67;;
11113;SDS011;5610;52.154;9.198;2023-06-10T07:14:45;8.70;;;6.10;;
11113;SDS011;5610;52.154;9.198;2023-06-10T07:17:30;5.90;;;5.40;;
11113;SDS011;5610;52.154;9.198;2023-06-10T07:20:16;10.43;;;6.93;;
11113;SDS011;5610;52.154;9.198;2023-06-10T07:23:01;10.63;;;6.13;;
11113;SDS011;5610;52.154;9.198;2023-06-10T07:25:46;8.27;;;5.87;;
11113;SDS011;5610;52.154;9.198;2023-06-10T07:28:33;6.47;;;5.87;;
11113;SDS011;5610;52.154;9.198;2023-06-10T07:31:18;6.93;;;6.00;;
11113;SDS011;5610;52.154;9.198;2023-06-10T07:34:03;9.07;;;5.93;;
11113;SDS011;5610;52.154;9.198;2023-06-10T07:36:49;7.07;;;6.23;;
11113;SDS011;5610;52.154;9.198;2023-06-10T07:39:33;5.50;;;5.00;;
11113;SDS011;5610;52.154;9.198;2023-06-10T07:42:19;7.20;;;6.27;;
11113;SDS011;5610;52.154;9.198;2023-06-10T07:45:06;7.33;;;5.93;;
11113;SDS011;5610;52.154;9.198;2023-06-10T07:47:52;7.97;;;5.67;;
11113;SDS011;5610;52.154;9.198;2023-06-10T07:50:37;6.90;;;6.13;;
11113;SDS011;5610;52.154;9.198;2023-06-10T07:53:22;8.93;;;5.90;;
11113;SDS011;5610;52.154;9.198;2023-06-10T07:56:07;6.33;;;5.27;;
11113;SDS011;5610;52.154;9.198;2023-06-10T07:58:53;9.67;;;6.50;;
11113;SDS011;5610;52.154;9.198;2023-06-10T08:01:39;8.00;;;5.60;;
11113;SDS011;5610;52.154;9.198;2023-06-10T08:04:26;8.03;;;5.70;;
11113;SDS011;5610;52.154;9.198;2023-06-10T08:07:11;7.83;;;6.13;;
11113;SDS011;5610;52.154;9.198;2023-06-10T08:09:56;11.47;;;6.87;;
11113;SDS011;5610;52.154;9.198;2023-06-10T08:12:42;8.67;;;6.40;;
11113;SDS011;5610;52.154;9.198;2023-06-10T08:15:27;8.27;;;6.30;;
11113;SDS011;5610;52.154;9.198;2023-06-10T08:18:13;11.03;;;6.50;;
11113;SDS011;5610;52.154;9.198;2023-06-10T08:20:59;7.30;;;6.13;;
11113;SDS011;5610;52.154;9.198;2023-06-10T08:23:44;7.23;;;5.67;;
11113;SDS011;5610;52.154;9.198;2023-06-10T08:26:29;6.60;;;6.00;;
11113;SDS011;5610;52.154;9.198;2023-06-10T08:29:15;7.90;;;6.80;;
11113;SDS011;5610;52.154;9.198;2023-06-10T08:32:00;10.93;;;5.90;;
11113;SDS011;5610;52.154;9.198;2023-06-10T08:34:46;8.13;;;6.50;;
11113;SDS011;5610;52.154;9.198;2023-06-10T08:37:32;9.17;;;6.83;;
11113;SDS011;5610;52.154;9.198;2023-06-10T08:40:17;7.33;;;6.30;;
11113;SDS011;5610;52.154;9.198;2023-06-10T08:43:04;6.73;;;6.10;;
11113;SDS011;5610;52.154;9.198;2023-06-10T08:45:51;7.30;;;5.90;;
11113;SDS011;5610;52.154;9.198;2023-06-10T08:48:42;7.57;;;6.27;;
11113;SDS011;5610;52.154;9.198;2023-06-10T08:51:29;8.90;;;7.00;;
11113;SDS011;5610;52.154;9.198;2023-06-10T08:54:17;10.03;;;7.00;;
11113;SDS011;5610;52.154;9.198;2023-06-10T08:57:05;6.90;;;6.20;;
11113;SDS011;5610;52.154;9.198;2023-06-10T08:59:51;8.53;;;6.23;;
11113;SDS011;5610;52.154;9.198;2023-06-10T09:02:37;10.43;;;7.27;;
11113;SDS011;5610;52.154;9.198;2023-06-10T09:05:23;12.83;;;7.47;;
11113;SDS011;5610;52.154;9.198;2023-06-10T09:08:10;8.43;;;6.97;;
11113;SDS011;5610;52.154;9.198;2023-06-10T09:10:55;7.87;;;6.70;;
11113;SDS011;5610;52.154;9.198;2023-06-10T09:13:41;8.67;;;6.40;;
11113;SDS011;5610;52.154;9.198;2023-06-10T09:16:26;7.00;;;6.23;;
11113;SDS011;5610;52.154;9.198;2023-06-10T09:19:12;8.17;;;6.70;;
11113;SDS011;5610;52.154;9.198;2023-06-10T09:21:59;9.23;;;6.43;;
11113;SDS011;5610;52.154;9.198;2023-06-10T09:24:48;6.00;;;5.40;;
11113;SDS011;5610;52.154;9.198;2023-06-10T09:27:33;7.97;;;6.20;;
11113;SDS011;5610;52.154;9.198;2023-06-10T09:30:30;7.63;;;6.50;;
11113;SDS011;5610;52.154;9.198;2023-06-10T09:33:16;10.33;;;6.50;;
11113;SDS011;5610;52.154;9.198;2023-06-10T09:36:01;7.80;;;5.87;;
11113;SDS011;5610;52.154;9.198;2023-06-10T09:38:49;8.80;;;5.13;;
11113;SDS011;5610;52.154;9.198;2023-06-10T09:41:39;6.33;;;5.73;;
11113;SDS011;5610;52.154;9.198;2023-06-10T09:44:25;6.60;;;5.97;;
11113;SDS011;5610;52.154;9.198;2023-06-10T09:47:12;8.07;;;5.87;;
11113;SDS011;5610;52.154;9.198;2023-06-10T09:50:04;10.30;;;6.00;;
11113;SDS011;5610;52.154;9.198;2023-06-10T09:52:50;5.70;;;5.20;;
11113;SDS011;5610;52.154;9.198;2023-06-10T09:55:37;8.23;;;5.47;;
11113;SDS011;5610;52.154;9.198;2023-06-10T09:58:34;6.97;;;5.10;;
11113;SDS011;5610;52.154;9.198;2023-06-10T10:01:21;7.60;;;5.13;;
11113;SDS011;5610;52.154;9.198;2023-06-10T10:04:08;5.97;;;5.20;;
11113;SDS011;5610;52.154;9.198;2023-06-10T10:06:53;7.63;;;5.93;;
11113;SDS011;5610;52.154;9.198;2023-06-10T10:09:38;5.83;;;5.03;;
11113;SDS011;5610;52.154;9.198;2023-06-10T10:12:25;7.77;;;5.40;;
11113;SDS011;5610;52.154;9.198;2023-06-10T10:15:12;5.70;;;4.87;;
11113;SDS011;5610;52.154;9.198;2023-06-10T10:18:02;5.37;;;4.87;;
11113;SDS011;5610;52.154;9.198;2023-06-10T10:20:51;6.70;;;4.90;;
11113;SDS011;5610;52.154;9.198;2023-06-10T10:23:40;5.53;;;4.60;;
11113;SDS011;5610;52.154;9.198;2023-06-10T10:26:33;5.63;;;5.03;;
11113;SDS011;5610;52.154;9.198;2023-06-10T10:29:22;5.43;;;4.80;;
11113;SDS011;5610;52.154;9.198;2023-06-10T10:32:10;5.47;;;4.83;;
11113;SDS011;5610;52.154;9.198;2023-06-10T10:35:00;5.87;;;4.43;;
11113;SDS011;5610;52.154;9.198;2023-06-10T10:37:51;4.83;;;4.33;;
11113;SDS011;5610;52.154;9.198;2023-06-10T10:40:37;5.03;;;4.50;;
11113;SDS011;5610;52.154;9.198;2023-06-10T10:43:23;8.50;;;4.00;;
11113;SDS011;5610;52.154;9.198;2023-06-10T10:46:11;6.00;;;3.77;;
11113;SDS011;5610;52.154;9.198;2023-06-10T10:48:58;7.70;;;4.70;;
11113;SDS011;5610;52.154;9.198;2023-06-10T10:51:55;4.57;;;3.93;;
11113;SDS011;5610;52.154;9.198;2023-06-10T10:54:43;7.43;;;4.20;;
11113;SDS011;5610;52.154;9.198;2023-06-10T10:57:30;5.50;;;4.10;;
11113;SDS011;5610;52.154;9.198;2023-06-10T11:00:15;5.13;;;4.50;;
11113;SDS011;5610;52.154;9.198;2023-06-10T11:03:12;5.33;;;4.83;;
11113;SDS011;5610;52.154;9.198;2023-06-10T11:06:01;6.87;;;5.17;;
11113;SDS011;5610;52.154;9.198;2023-06-10T11:08:58;5.30;;;4.80;;
11113;SDS011;5610;52.154;9.198;2023-06-10T11:11:48;5.57;;;4.43;;
11113;SDS011;5610;52.154;9.198;2023-06-10T11:14:34;5.47;;;4.20;;
11113;SDS011;5610;52.154;9.198;2023-06-10T11:17:20;5.50;;;4.13;;
11113;SDS011;5610;52.154;9.198;2023-06-10T11:20:06;4.23;;;3.93;;
11113;SDS011;5610;52.154;9.198;2023-06-10T11:22:59;4.10;;;3.70;;
11113;SDS011;5610;52.154;9.198;2023-06-10T11:25:46;5.30;;;4.40;;
11113;SDS011;5610;52.154;9.198;2023-06-10T11:28:31;4.50;;;4.10;;
11113;SDS011;5610;52.154;9.198;2023-06-10T11:31:18;5.30;;;3.90;;
11113;SDS011;5610;52.154;9.198;2023-06-10T11:34:05;5.00;;;4.60;;
11113;SDS011;5610;52.154;9.198;2023-06-10T11:36:51;4.67;;;3.83;;
11113;SDS011;5610;52.154;9.198;2023-06-10T11:39:38;5.67;;;5.27;;
11113;SDS011;5610;52.154;9.198;2023-06-10T11:42:23;6.43;;;4.60;;
11113;SDS011;5610;52.154;9.198;2023-06-10T11:45:09;5.60;;;4.40;;
11113;SDS011;5610;52.154;9.198;2023-06-10T11:47:55;5.23;;;4.13;;
11113;SDS011;5610;52.154;9.198;2023-06-10T11:50:41;5.03;;;4.63;;
11113;SDS011;5610;52.154;9.198;2023-06-10T11:53:26;5.80;;;4.80;;
11113;SDS011;5610;52.154;9.198;2023-06-10T11:56:13;4.90;;;4.50;;
11113;SDS011;5610;52.154;9.198;2023-06-10T11:58:59;5.27;;;4.77;;
11113;SDS011;5610;52.154;9.198;2023-06-10T12:01:48;5.10;;;4.60;;
11113;SDS011;5610;52.154;9.198;2023-06-10T12:04:33;6.10;;;4.33;;
11113;SDS011;5610;52.154;9.198;2023-06-10T12:07:18;5.83;;;4.77;;
11113;SDS011;5610;52.154;9.198;2023-06-10T12:10:06;5.37;;;4.87;;
11113;SDS011;5610;52.154;9.198;2023-06-10T12:12:53;5.47;;;4.97;;
11113;SDS011;5610;52.154;9.198;2023-06-10T12:15:38;5.20;;;4.70;;
11113;SDS011;5610;52.154;9.198;2023-06-10T12:18:23;7.17;;;5.10;;
11113;SDS011;5610;52.154;9.198;2023-06-10T12:21:16;6.30;;;5.10;;
11113;SDS011;5610;52.154;9.198;2023-06-10T12:24:06;6.47;;;5.10;;
11113;SDS011;5610;52.154;9.198;2023-06-10T12:26:53;5.95;;;5.13;;
11113;SDS011;5610;52.154;9.198;2023-06-10T12:29:40;6.00;;;5.50;;
11113;SDS011;5610;52.154;9.198;2023-06-10T12:32:42;7.60;;;5.35;;
11113;SDS011;5610;52.154;9.198;2023-06-10T12:35:29;5.88;;;5.38;;
11113;SDS011;5610;52.154;9.198;2023-06-10T12:38:14;5.63;;;5.13;;
11113;SDS011;5610;52.154;9.198;2023-06-10T12:41:01;7.95;;;5.38;;
11113;SDS011;5610;52.154;9.198;2023-06-10T12:43:47;6.80;;;6.10;;
11113;SDS011;5610;52.154;9.198;2023-06-10T12:46:36;6.20;;;5.57;;
11113;SDS011;5610;52.154;9.198;2023-06-10T12:49:22;7.10;;;6.32;;
11113;SDS011;5610;52.154;9.198;2023-06-10T12:52:07;7.45;;;5.97;;
11113;SDS011;5610;52.154;9.198;2023-06-10T12:54:52;9.30;;;5.90;;
11113;SDS011;5610;52.154;9.198;2023-06-10T12:57:47;7.73;;;5.90;;
11113;SDS011;5610;52.154;9.198;2023-06-10T13:00:33;7.07;;;6.37;;
11113;SDS011;5610;52.154;9.198;2023-06-10T13:03:20;6.77;;;6.17;;
11113;SDS011;5610;52.154;9.198;2023-06-10T13:06:05;6.40;;;5.90;;
11113;SDS011;5610;52.154;9.198;2023-06-10T13:08:52;6.67;;;5.90;;
11113;SDS011;5610;52.154;9.198;2023-06-10T13:11:37;7.30;;;6.43;;
11113;SDS011;5610;52.154;9.198;2023-06-10T13:14:22;6.50;;;5.53;;
11113;SDS011;5610;52.154;9.198;2023-06-10T13:17:07;8.30;;;5.57;;
11113;SDS011;5610;52.154;9.198;2023-06-10T13:19:54;6.57;;;5.97;;
11113;SDS011;5610;52.154;9.198;2023-06-10T13:22:39;9.93;;;6.17;;
11113;SDS011;5610;52.154;9.198;2023-06-10T13:25:24;7.20;;;6.37;;
11113;SDS011;5610;52.154;9.198;2023-06-10T13:28:10;7.70;;;7.00;;
11113;SDS011;5610;52.154;9.198;2023-06-10T13:30:55;8.50;;;6.17;;
11113;SDS011;5610;52.154;9.198;2023-06-10T13:33:40;6.00;;;5.60;;
11113;SDS011;5610;52.154;9.198;2023-06-10T13:36:28;6.13;;;5.53;;
11113;SDS011;5610;52.154;9.198;2023-06-10T13:39:13;6.50;;;5.50;;
11113;SDS011;5610;52.154;9.198;2023-06-10T13:41:59;7.13;;;6.57;;
11113;SDS011;5610;52.154;9.198;2023-06-10T13:44:44;8.57;;;6.50;;
11113;SDS011;5610;52.154;9.198;2023-06-10T13:47:31;7.03;;;6.53;;
11113;SDS011;5610;52.154;9.198;2023-06-10T13:50:16;6.33;;;5.73;;
11113;SDS011;5610;52.154;9.198;2023-06-10T13:53:03;6.90;;;6.30;;
11113;SDS011;5610;52.154;9.198;2023-06-10T13:55:48;6.53;;;5.93;;
11113;SDS011;5610;52.154;9.198;2023-06-10T13:58:33;7.13;;;6.47;;
11113;SDS011;5610;52.154;9.198;2023-06-10T14:01:22;6.57;;;5.97;;
11113;SDS011;5610;52.154;9.198;2023-06-10T14:04:08;7.47;;;6.83;;
11113;SDS011;5610;52.154;9.198;2023-06-10T14:06:54;9.33;;;7.03;;
11113;SDS011;5610;52.154;9.198;2023-06-10T14:09:40;8.87;;;7.13;;
11113;SDS011;5610;52.154;9.198;2023-06-10T14:12:26;9.83;;;7.07;;
11113;SDS011;5610;52.154;9.198;2023-06-10T14:15:11;7.37;;;6.77;;
11113;SDS011;5610;52.154;9.198;2023-06-10T14:17:56;7.93;;;7.23;;
11113;SDS011;5610;52.154;9.198;2023-06-10T14:20:41;9.37;;;7.23;;
11113;SDS011;5610;52.154;9.198;2023-06-10T14:23:26;10.10;;;7.97;;
11113;SDS011;5610;52.154;9.198;2023-06-10T14:26:13;11.23;;;7.70;;
11113;SDS011;5610;52.154;9.198;2023-06-10T14:28:58;7.50;;;6.90;;
11113;SDS011;5610;52.154;9.198;2023-06-10T14:31:44;11.10;;;8.17;;
11113;SDS011;5610;52.154;9.198;2023-06-10T14:34:29;7.87;;;6.93;;
11113;SDS011;5610;52.154;9.198;2023-06-10T14:37:17;8.83;;;8.03;;
11113;SDS011;5610;52.154;9.198;2023-06-10T14:40:03;8.90;;;7.30;;
11113;SDS011;5610;52.154;9.198;2023-06-10T14:42:50;7.93;;;6.83;;
11113;SDS011;5610;52.154;9.198;2023-06-10T14:45:36;8.00;;;7.20;;
11113;SDS011;5610;52.154;9.198;2023-06-10T14:48:21;7.50;;;6.80;;
11113;SDS011;5610;52.154;9.198;2023-06-10T14:51:06;6.97;;;6.10;;
11113;SDS011;5610;52.154;9.198;2023-06-10T14:53:52;8.07;;;7.37;;
11113;SDS011;5610;52.154;9.198;2023-06-10T14:56:37;8.47;;;6.43;;
11113;SDS011;5610;52.154;9.198;2023-06-10T14:59:23;7.90;;;7.20;;
11113;SDS011;5610;52.154;9.198;2023-06-10T15:02:08;7.63;;;6.93;;
11113;SDS011;5610;52.154;9.198;2023-06-10T15:04:53;8.13;;;7.43;;
11113;SDS011;5610;52.154;9.198;2023-06-10T15:07:38;8.37;;;7.57;;
11113;SDS011;5610;52.154;9.198;2023-06-10T15:10:23;8.60;;;7.90;;
11113;SDS011;5610;52.154;9.198;2023-06-10T15:13:08;8.00;;;7.20;;
11113;SDS011;5610;52.154;9.198;2023-06-10T15:15:55;8.10;;;7.40;;
11113;SDS011;5610;52.154;9.198;2023-06-10T15:18:40;7.80;;;6.97;;
11113;SDS011;5610;52.154;9.198;2023-06-10T15:21:25;8.80;;;7.10;;
11113;SDS011;5610;52.154;9.198;2023-06-10T15:24:11;7.70;;;7.10;;
11113;SDS011;5610;52.154;9.198;2023-06-10T15:26:56;7.93;;;7.23;;
11113;SDS011;5610;52.154;9.198;2023-06-10T15:29:41;7.43;;;6.73;;
11113;SDS011;5610;52.154;9.198;2023-06-10T15:32:30;8.00;;;7.10;;
11113;SDS011;5610;52.154;9.198;2023-06-10T15:35:15;8.57;;;7.70;;
11113;SDS011;5610;52.154;9.198;2023-06-10T15:38:01;7.33;;;6.63;;
11113;SDS011;5610;52.154;9.198;2023-06-10T15:40:46;7.83;;;6.97;;
11113;SDS011;5610;52.154;9.198;2023-06-10T15:43:31;8.50;;;7.60;;
11113;SDS011;5610;52.154;9.198;2023-06-10T15:46:16;10.17;;;6.97;;
11113;SDS011;5610;52.154;9.198;2023-06-10T15:49:03;7.97;;;6.77;;
11113;SDS011;5610;52.154;9.198;2023-06-10T15:51:49;8.63;;;7.87;;
11113;SDS011;5610;52.154;9.198;2023-06-10T15:54:34;7.07;;;6.47;;
11113;SDS011;5610;52.154;9.198;2023-06-10T15:57:19;8.17;;;7.23;;
11113;SDS011;5610;52.154;9.198;2023-06-10T16:00:05;7.13;;;6.60;;
11113;SDS011;5610;52.154;9.198;2023-06-10T16:02:51;8.30;;;7.60;;
11113;SDS011;5610;52.154;9.198;2023-06-10T16:05:38;9.97;;;7.30;;
11113;SDS011;5610;52.154;9.198;2023-06-10T16:08:23;7.90;;;7.30;;
11113;SDS011;5610;52.154;9.198;2023-06-10T16:11:09;7.77;;;6.97;;
11113;SDS011;5610;52.154;9.198;2023-06-10T16:13:54;9.53;;;7.77;;
11113;SDS011;5610;52.154;9.198;2023-06-10T16:16:40;11.10;;;8.13;;
11113;SDS011;5610;52.154;9.198;2023-06-10T16:19:25;8.30;;;7.53;;
11113;SDS011;5610;52.154;9.198;2023-06-10T16:22:11;8.90;;;8.00;;
11113;SDS011;5610;52.154;9.198;2023-06-10T16:24:57;9.87;;;8.33;;
11113;SDS011;5610;52.154;9.198;2023-06-10T16:27:42;8.40;;;7.60;;
11113;SDS011;5610;52.154;9.198;2023-06-10T16:30:27;8.87;;;8.17;;
11113;SDS011;5610;52.154;9.198;2023-06-10T16:33:12;7.97;;;7.23;;
11113;SDS011;5610;52.154;9.198;2023-06-10T16:35:57;8.33;;;7.53;;
11113;SDS011;5610;52.154;9.198;2023-06-10T16:38:44;8.83;;;7.93;;
11113;SDS011;5610;52.154;9.198;2023-06-10T16:41:29;8.17;;;7.47;;
11113;SDS011;5610;52.154;9.198;2023-06-10T16:44:15;8.77;;;8.07;;
11113;SDS011;5610;52.154;9.198;2023-06-10T16:47:00;7.90;;;7.30;;
11113;SDS011;5610;52.154;9.198;2023-06-10T16:49:45;9.17;;;7.83;;
11113;SDS011;5610;52.154;9.198;2023-06-10T16:52:31;13.33;;;7.90;;
11113;SDS011;5610;52.154;9.198;2023-06-10T16:55:17;8.67;;;7.87;;
11113;SDS011;5610;52.154;9.198;2023-06-10T16:58:02;10.77;;;8.53;;